createdAt,value
2019-06-08T00:00:53.159Z,8.80
2019-06-08T00:03:39.500Z,8.33
2019-06-08T00:06:25.795Z,8.57
2019-06-08T00:09:13.031Z,8.63
2019-06-08T00:11:59.485Z,8.47
2019-06-08T00:14:46.090Z,8.43
2019-06-08T00:17:38.496Z,8.53
2019-06-08T00:20:21.859Z,8.50
2019-06-08T00:23:08.375Z,8.00
2019-06-08T00:25:54.680Z,8.30
2019-06-08T00:28:40.884Z,8.40
2019-06-08T00:31:27.517Z,8.13
2019-06-08T00:34:14.509Z,8.50
2019-06-08T00:37:01.221Z,8.30
2019-06-08T00:39:47.661Z,8.30
2019-06-08T00:42:34.029Z,8.30
2019-06-08T00:45:21.642Z,8.40
2019-06-08T00:48:08.227Z,8.50
2019-06-08T00:50:54.594Z,8.10
2019-06-08T00:53:40.738Z,8.00
2019-06-08T00:56:27.301Z,8.30
2019-06-08T00:59:13.512Z,8.27
2019-06-08T01:01:59.886Z,7.97
2019-06-08T01:04:46.104Z,8.37
2019-06-08T01:07:32.501Z,8.20
2019-06-08T01:10:19.315Z,8.40
2019-06-08T01:13:05.952Z,8.30
2019-06-08T01:15:52.290Z,8.17
2019-06-08T01:18:38.472Z,8.13
2019-06-08T01:21:25.578Z,8.20
2019-06-08T01:24:12.454Z,8.20
2019-06-08T01:26:58.806Z,8.17
2019-06-08T01:29:45.304Z,8.20
2019-06-08T01:32:31.609Z,8.10
2019-06-08T01:35:17.872Z,7.90
2019-06-08T01:38:04.245Z,8.20
2019-06-08T01:40:50.398Z,8.30
2019-06-08T01:43:36.854Z,8.50
2019-06-08T01:46:23.817Z,8.13
2019-06-08T01:49:10.105Z,8.27
2019-06-08T01:51:56.656Z,8.10
2019-06-08T01:54:43.099Z,8.40
2019-06-08T01:57:29.501Z,8.53
2019-06-08T02:00:29.798Z,8.07
2019-06-08T02:03:04.418Z,8.33
2019-06-08T02:05:50.733Z,8.27
2019-06-08T02:08:37.193Z,8.30
2019-06-08T02:11:24.516Z,8.30
2019-06-08T02:14:11.002Z,8.37
2019-06-08T02:16:57.311Z,8.20
2019-06-08T02:19:43.793Z,8.00
2019-06-08T02:22:31.008Z,8.00
2019-06-08T02:25:24.498Z,8.20
2019-06-08T02:28:11.156Z,8.03
2019-06-08T02:30:57.882Z,8.00
2019-06-08T02:33:44.206Z,8.33
2019-06-08T02:36:32.807Z,8.30
2019-06-08T02:39:19.023Z,8.43
2019-06-08T02:42:05.790Z,8.43
2019-06-08T02:44:51.992Z,8.10
2019-06-08T02:47:38.525Z,8.33
2019-06-08T02:50:54.904Z,8.10
2019-06-08T02:53:41.689Z,8.20
2019-06-08T02:56:29.927Z,8.10
2019-06-08T02:59:20.737Z,8.10
2019-06-08T03:02:07.829Z,8.00
2019-06-08T03:04:56.092Z,8.23
2019-06-08T03:07:42.534Z,8.30
2019-06-08T03:10:32.935Z,8.17
2019-06-08T03:13:22.549Z,8.10
2019-06-08T03:16:09.846Z,8.53
2019-06-08T03:18:56.205Z,8.50
2019-06-08T03:21:42.776Z,8.10
2019-06-08T03:24:29.091Z,8.10
2019-06-08T03:27:15.430Z,8.33
2019-06-08T03:30:15.266Z,8.63
2019-06-08T03:32:56.385Z,8.20
2019-06-08T03:35:50.979Z,8.23
2019-06-08T03:38:27.734Z,8.10
2019-06-08T03:41:14.232Z,8.30
2019-06-08T03:44:00.713Z,8.20
2019-06-08T03:46:47.130Z,8.20
2019-06-08T03:49:43.168Z,8.20
2019-06-08T03:52:21.778Z,8.20
2019-06-08T03:55:09.191Z,8.27
2019-06-08T03:57:55.498Z,8.30
2019-06-08T04:00:42.440Z,8.07
2019-06-08T04:03:29.394Z,8.43
2019-06-08T04:06:15.686Z,8.40
2019-06-08T04:09:02.115Z,8.30
2019-06-08T04:11:50.536Z,8.30
2019-06-08T04:14:37.840Z,8.20
2019-06-08T04:17:24.571Z,8.30
2019-06-08T04:20:12.339Z,8.37
2019-06-08T04:22:58.928Z,8.47
2019-06-08T04:25:47.437Z,8.20
2019-06-08T04:28:33.558Z,8.10
2019-06-08T04:31:20.110Z,8.50
2019-06-08T04:34:06.481Z,8.30
2019-06-08T04:36:52.961Z,8.23
2019-06-08T04:39:40.254Z,8.40
2019-06-08T04:42:27.013Z,8.40
2019-06-08T04:45:13.746Z,8.27
2019-06-08T04:47:59.998Z,8.40
2019-06-08T04:50:48.042Z,8.43
2019-06-08T04:53:34.837Z,8.77
2019-06-08T04:56:21.194Z,7.90
2019-06-08T04:59:08.385Z,8.40
2019-06-08T05:01:54.701Z,8.83
2019-06-08T05:04:41.067Z,8.30
2019-06-08T05:07:27.915Z,8.20
2019-06-08T05:10:15.083Z,8.20
2019-06-08T05:13:01.509Z,8.10
2019-06-08T05:15:50.022Z,8.40
2019-06-08T05:18:36.088Z,8.10
2019-06-08T05:21:22.270Z,8.20
2019-06-08T05:24:08.676Z,8.50
2019-06-08T05:26:54.910Z,8.40
2019-06-08T05:29:41.340Z,8.13
2019-06-08T05:32:27.602Z,8.50
2019-06-08T05:35:14.135Z,8.30
2019-06-08T05:38:00.344Z,8.20
2019-06-08T05:40:47.943Z,7.97
2019-06-08T05:43:34.064Z,8.40
2019-06-08T05:46:20.430Z,8.37
2019-06-08T05:49:06.915Z,8.20
2019-06-08T05:51:53.153Z,8.37
2019-06-08T05:54:39.850Z,8.30
2019-06-08T05:57:26.510Z,8.00
2019-06-08T06:00:13.805Z,8.10
2019-06-08T06:03:00.436Z,8.00
2019-06-08T06:05:46.980Z,8.77
2019-06-08T06:08:33.146Z,8.10
2019-06-08T06:11:19.548Z,8.03
2019-06-08T06:14:05.995Z,8.20
2019-06-08T06:16:52.324Z,8.13
2019-06-08T06:19:38.872Z,8.30
2019-06-08T06:22:25.191Z,8.30
2019-06-08T06:25:12.280Z,8.33
2019-06-08T06:27:58.814Z,8.37
2019-06-08T06:30:46.585Z,8.50
2019-06-08T06:33:33.597Z,8.20
2019-06-08T06:36:19.903Z,8.47
2019-06-08T06:39:07.019Z,8.10
2019-06-08T06:41:53.408Z,8.40
2019-06-08T06:44:39.812Z,8.00
2019-06-08T06:47:26.280Z,7.90
2019-06-08T06:50:12.644Z,8.00
2019-06-08T06:52:58.937Z,8.00
2019-06-08T06:55:46.830Z,8.00
2019-06-08T06:58:33.791Z,8.53
2019-06-08T07:01:20.060Z,8.47
2019-06-08T07:04:06.522Z,8.50
2019-06-08T07:06:54.322Z,8.30
2019-06-08T07:09:41.269Z,8.40
2019-06-08T07:12:27.743Z,8.00
2019-06-08T07:15:24.714Z,8.20
2019-06-08T07:18:11.443Z,7.90
2019-06-08T07:20:58.581Z,8.23
2019-06-08T07:23:46.250Z,8.17
2019-06-08T07:26:33.047Z,8.00
2019-06-08T07:29:19.443Z,8.20
2019-06-08T07:32:05.802Z,8.13
2019-06-08T07:34:53.178Z,8.47
2019-06-08T07:37:40.013Z,8.63
2019-06-08T07:40:26.340Z,8.03
2019-06-08T07:43:13.504Z,8.20
2019-06-08T07:46:00.323Z,8.27
2019-06-08T07:48:48.029Z,8.33
2019-06-08T07:51:34.861Z,8.20
2019-06-08T07:54:21.686Z,8.20
2019-06-08T07:57:08.005Z,8.20
2019-06-08T07:59:54.655Z,8.03
2019-06-08T08:02:42.886Z,8.30
2019-06-08T08:05:29.252Z,8.10
2019-06-08T08:08:15.703Z,8.10
2019-06-08T08:11:02.140Z,8.10
2019-06-08T08:13:50.132Z,8.00
2019-06-08T08:16:36.793Z,8.40
2019-06-08T08:19:23.316Z,8.20
2019-06-08T08:22:22.252Z,8.13
2019-06-08T08:25:02.434Z,8.00
2019-06-08T08:27:47.940Z,8.07
2019-06-08T08:30:37.527Z,8.03
2019-06-08T08:33:23.402Z,8.20
2019-06-08T08:36:09.487Z,7.90
2019-06-08T08:38:58.785Z,8.17
2019-06-08T08:41:44.428Z,8.00
2019-06-08T08:44:30.785Z,8.03
2019-06-08T08:47:18.720Z,7.90
2019-06-08T08:50:08.038Z,8.37
2019-06-08T08:52:54.183Z,8.10
2019-06-08T08:55:40.645Z,8.10
2019-06-08T08:58:28.026Z,8.07
2019-06-08T09:01:20.275Z,8.17
2019-06-08T09:04:05.142Z,8.00
2019-06-08T09:06:52.442Z,8.10
2019-06-08T09:09:39.633Z,8.20
2019-06-08T09:12:27.669Z,8.07
2019-06-08T09:15:14.188Z,8.00
2019-06-08T09:18:03.342Z,8.10
2019-06-08T09:20:50.017Z,7.87
2019-06-08T09:23:37.820Z,7.80
2019-06-08T09:26:24.501Z,8.00
2019-06-08T09:29:12.139Z,8.10
2019-06-08T09:32:00.730Z,7.80
2019-06-08T09:34:48.362Z,7.73
2019-06-08T09:37:37.429Z,8.10
2019-06-08T09:40:25.898Z,7.90
2019-06-08T09:43:13.312Z,7.80
2019-06-08T09:46:02.049Z,8.17
2019-06-08T09:48:49.349Z,7.90
2019-06-08T09:51:37.817Z,7.80
2019-06-08T09:54:24.356Z,8.00
2019-06-08T09:57:10.687Z,8.03
2019-06-08T10:00:01.237Z,7.80
2019-06-08T10:02:47.943Z,8.10
2019-06-08T10:05:38.894Z,8.00
2019-06-08T10:08:28.178Z,7.90
2019-06-08T10:11:14.137Z,8.00
2019-06-08T10:14:03.724Z,7.80
2019-06-08T10:16:49.094Z,7.80
2019-06-08T10:19:35.292Z,7.97
2019-06-08T10:22:22.127Z,8.10
2019-06-08T10:25:11.240Z,7.80
2019-06-08T10:28:04.104Z,7.80
2019-06-08T10:30:48.027Z,7.80
2019-06-08T10:33:33.788Z,8.10
2019-06-08T10:36:20.336Z,8.10
2019-06-08T10:39:11.461Z,7.93
2019-06-08T10:41:57.614Z,8.00
2019-06-08T10:44:44.485Z,7.80
2019-06-08T10:47:31.139Z,7.90
2019-06-08T10:50:19.691Z,7.70
2019-06-08T10:53:09.984Z,7.70
2019-06-08T10:55:54.648Z,7.90
2019-06-08T10:58:41.052Z,7.90
2019-06-08T11:01:28.256Z,7.67
2019-06-08T11:04:14.841Z,7.90
2019-06-08T11:07:07.192Z,7.67
2019-06-08T11:09:50.814Z,7.90
2019-06-08T11:12:37.747Z,7.90
2019-06-08T11:15:24.368Z,7.97
2019-06-08T11:18:13.214Z,8.00
2019-06-08T11:21:00.557Z,8.00
2019-06-08T11:24:04.601Z,7.90
2019-06-08T11:26:39.984Z,7.70
2019-06-08T11:29:24.842Z,8.00
2019-06-08T11:32:12.955Z,7.90
2019-06-08T11:34:59.900Z,7.80
2019-06-08T11:37:48.860Z,7.70
2019-06-08T11:40:34.880Z,7.90
2019-06-08T11:43:21.013Z,7.60
2019-06-08T11:46:08.434Z,7.47
2019-06-08T11:48:54.745Z,7.90
2019-06-08T11:51:41.038Z,7.90
2019-06-08T11:54:36.847Z,7.57
2019-06-08T11:57:17.668Z,7.70
2019-06-08T12:00:16.687Z,7.60
2019-06-08T12:02:54.168Z,7.60
2019-06-08T12:05:41.503Z,7.70
2019-06-08T12:08:28.615Z,7.70
2019-06-08T12:11:18.780Z,8.00
2019-06-08T12:14:04.800Z,7.70
2019-06-08T12:16:51.473Z,7.93
2019-06-08T12:19:38.791Z,7.50
2019-06-08T12:22:25.219Z,7.70
2019-06-08T12:25:12.210Z,7.80
2019-06-08T12:27:58.759Z,7.80
2019-06-08T12:30:47.663Z,8.00
2019-06-08T12:33:33.698Z,7.80
2019-06-08T12:36:20.976Z,7.70
2019-06-08T12:39:07.862Z,7.83
2019-06-08T12:41:54.701Z,7.83
2019-06-08T12:44:43.640Z,7.90
2019-06-08T12:47:29.973Z,7.70
2019-06-08T12:50:17.076Z,7.60
2019-06-08T12:53:03.921Z,7.70
2019-06-08T12:55:50.624Z,7.60
2019-06-08T12:58:38.641Z,8.00
2019-06-08T13:01:27.976Z,7.90
2019-06-08T13:04:13.878Z,8.10
2019-06-08T13:07:00.004Z,7.50
2019-06-08T13:09:48.293Z,7.60
2019-06-08T13:12:34.897Z,8.60
2019-06-08T13:15:21.971Z,7.77
2019-06-08T13:18:10.226Z,7.80
2019-06-08T13:21:00.415Z,8.20
2019-06-08T13:23:47.979Z,8.03
2019-06-08T13:26:33.695Z,7.80
2019-06-08T13:29:21.985Z,7.57
2019-06-08T13:32:09.733Z,7.90
2019-06-08T13:34:58.257Z,7.63
2019-06-08T13:37:44.705Z,7.87
2019-06-08T13:40:31.036Z,8.00
2019-06-08T13:43:19.796Z,7.67
2019-06-08T13:46:08.048Z,7.90
2019-06-08T13:48:54.015Z,7.90
2019-06-08T13:51:40.345Z,7.80
2019-06-08T13:54:30.891Z,7.90
2019-06-08T13:57:15.122Z,7.90
2019-06-08T14:00:03.307Z,7.60
2019-06-08T14:02:50.131Z,8.10
2019-06-08T14:05:38.778Z,7.90
2019-06-08T14:08:32.328Z,7.90
2019-06-08T14:11:14.854Z,7.90
2019-06-08T14:14:01.609Z,7.60
2019-06-08T14:16:50.574Z,7.90
2019-06-08T14:19:38.541Z,8.00
2019-06-08T14:22:26.543Z,8.10
2019-06-08T14:25:13.437Z,7.63
2019-06-08T14:27:59.699Z,7.70
2019-06-08T14:30:47.903Z,7.97
2019-06-08T14:33:34.452Z,7.67
2019-06-08T14:36:22.671Z,7.70
2019-06-08T14:39:10.639Z,7.43
2019-06-08T14:41:57.884Z,7.43
2019-06-08T14:44:44.421Z,7.90
2019-06-08T14:47:30.803Z,7.70
2019-06-08T14:50:18.513Z,7.80
2019-06-08T14:53:08.314Z,7.97
2019-06-08T14:56:05.747Z,7.93
2019-06-08T14:58:43.015Z,7.83
2019-06-08T15:01:30.265Z,7.90
2019-06-08T15:04:22.328Z,7.70
2019-06-08T15:07:09.348Z,7.53
2019-06-08T15:09:54.639Z,7.50
2019-06-08T15:12:40.934Z,7.80
2019-06-08T15:15:30.080Z,7.70
2019-06-08T15:18:18.437Z,7.50
2019-06-08T15:21:03.951Z,7.83
2019-06-08T15:23:50.512Z,7.90
2019-06-08T15:26:44.608Z,7.80
2019-06-08T15:29:25.061Z,7.60
2019-06-08T15:32:11.422Z,7.60
2019-06-08T15:34:57.798Z,7.37
2019-06-08T15:37:44.408Z,7.57
2019-06-08T15:40:31.877Z,7.70
2019-06-08T15:43:18.328Z,7.70
2019-06-08T15:46:04.613Z,7.67
2019-06-08T15:48:51.089Z,7.80
2019-06-08T15:51:40.519Z,8.13
2019-06-08T15:54:29.013Z,8.00
2019-06-08T15:57:14.067Z,7.80
2019-06-08T16:00:00.619Z,7.93
2019-06-08T16:02:46.830Z,7.60
2019-06-08T16:05:33.878Z,7.60
2019-06-08T16:08:20.711Z,7.60
2019-06-08T16:11:07.201Z,7.83
2019-06-08T16:13:53.883Z,7.70
2019-06-08T16:16:40.579Z,7.33
2019-06-08T16:19:27.448Z,7.77
2019-06-08T16:22:14.221Z,7.70
2019-06-08T16:25:00.702Z,7.70
2019-06-08T16:27:46.967Z,7.60
2019-06-08T16:30:33.358Z,7.83
2019-06-08T16:33:19.759Z,7.90
2019-06-08T16:36:06.057Z,7.73
2019-06-08T16:38:53.016Z,8.00
2019-06-08T16:41:40.928Z,7.80
2019-06-08T16:44:28.068Z,7.80
2019-06-08T16:47:14.657Z,7.70
2019-06-08T16:50:01.090Z,7.70
2019-06-08T16:52:47.160Z,7.70
2019-06-08T16:55:33.992Z,7.73
2019-06-08T16:58:20.401Z,7.60
2019-06-08T17:01:06.795Z,7.50
2019-06-08T17:03:53.059Z,7.90
2019-06-08T17:06:39.537Z,7.50
2019-06-08T17:09:25.652Z,7.90
2019-06-08T17:12:12.028Z,7.80
2019-06-08T17:14:59.987Z,7.60
2019-06-08T17:17:46.401Z,7.63
2019-06-08T17:20:33.999Z,7.50
2019-06-08T17:23:20.603Z,7.73
2019-06-08T17:26:06.975Z,7.90
2019-06-08T17:28:53.203Z,7.60
2019-06-08T17:31:39.791Z,7.57
2019-06-08T17:34:26.139Z,7.80
2019-06-08T17:37:12.586Z,7.60
2019-06-08T17:39:59.038Z,7.80
2019-06-08T17:42:45.250Z,7.60
2019-06-08T17:45:32.483Z,7.70
2019-06-08T17:48:19.035Z,7.67
2019-06-08T17:51:05.313Z,7.70
2019-06-08T17:53:51.729Z,7.63
2019-06-08T17:56:39.105Z,7.23
2019-06-08T17:59:26.820Z,7.73
2019-06-08T18:02:18.924Z,8.13
2019-06-08T18:05:01.884Z,7.67
2019-06-08T18:07:48.911Z,7.50
2019-06-08T18:10:36.477Z,7.93
2019-06-08T18:13:23.928Z,8.00
2019-06-08T18:16:10.157Z,7.60
2019-06-08T18:18:57.712Z,7.60
2019-06-08T18:21:44.590Z,7.77
2019-06-08T18:24:32.061Z,7.60
2019-06-08T18:27:18.385Z,7.90
2019-06-08T18:30:08.988Z,7.87
2019-06-08T18:32:53.679Z,8.10
2019-06-08T18:35:41.832Z,8.07
2019-06-08T18:38:28.029Z,7.80
2019-06-08T18:41:14.616Z,7.60
2019-06-08T18:44:00.841Z,8.03
2019-06-08T18:46:48.283Z,7.63
2019-06-08T18:49:35.234Z,8.20
2019-06-08T18:52:21.748Z,7.70
2019-06-08T18:55:08.467Z,8.27
2019-06-08T18:57:56.976Z,7.60
2019-06-08T19:00:46.236Z,7.67
2019-06-08T19:03:32.003Z,8.00
2019-06-08T19:06:18.997Z,7.90
2019-06-08T19:09:07.584Z,7.73
2019-06-08T19:11:54.315Z,8.10
2019-06-08T19:14:41.982Z,7.80
2019-06-08T19:17:28.714Z,7.97
2019-06-08T19:20:17.002Z,7.80
2019-06-08T19:23:03.521Z,7.90
2019-06-08T19:25:49.894Z,7.90
2019-06-08T19:28:40.633Z,8.00
2019-06-08T19:31:27.683Z,8.00
2019-06-08T19:34:14.114Z,7.70
2019-06-08T19:37:00.300Z,7.90
2019-06-08T19:39:48.232Z,7.90
2019-06-08T19:42:41.384Z,7.80
2019-06-08T19:45:23.664Z,7.70
2019-06-08T19:48:09.945Z,7.93
2019-06-08T19:50:58.163Z,8.20
2019-06-08T19:53:49.471Z,7.80
2019-06-08T19:56:33.036Z,8.30
2019-06-08T19:59:19.280Z,7.80
2019-06-08T20:02:08.474Z,7.73
2019-06-08T20:04:54.033Z,7.80
2019-06-08T20:07:40.781Z,8.30
2019-06-08T20:10:27.991Z,7.90
2019-06-08T20:13:14.699Z,8.10
2019-06-08T20:16:02.348Z,10.20
2019-06-08T20:18:51.230Z,8.60
2019-06-08T20:21:38.113Z,10.30
2019-06-08T20:24:24.683Z,10.03
2019-06-08T20:27:11.262Z,9.70
2019-06-08T20:29:58.348Z,9.93
2019-06-08T20:32:46.563Z,10.30
2019-06-08T20:35:33.893Z,11.70
2019-06-08T20:38:34.129Z,11.07
2019-06-08T20:41:09.038Z,10.30
2019-06-08T20:43:57.785Z,10.00
2019-06-08T20:46:44.130Z,9.47
2019-06-08T20:49:30.669Z,9.07
2019-06-08T20:52:17.768Z,8.70
2019-06-08T20:55:04.685Z,9.30
2019-06-08T20:57:52.356Z,9.40
2019-06-08T21:00:39.062Z,9.30
2019-06-08T21:03:27.849Z,9.13
2019-06-08T21:06:14.126Z,9.67
2019-06-08T21:09:00.702Z,9.37
2019-06-08T21:11:50.311Z,8.87
2019-06-08T21:14:37.858Z,8.87
2019-06-08T21:17:24.355Z,9.07
2019-06-08T21:20:10.875Z,8.93
2019-06-08T21:22:59.619Z,8.60
2019-06-08T21:25:47.086Z,8.73
2019-06-08T21:28:34.444Z,8.90
2019-06-08T21:31:20.463Z,8.70
2019-06-08T21:34:07.464Z,8.70
2019-06-08T21:36:55.429Z,9.20
2019-06-08T21:39:42.258Z,8.97
2019-06-08T21:42:28.579Z,9.40
2019-06-08T21:45:15.377Z,8.50
2019-06-08T21:48:01.804Z,9.57
2019-06-08T21:50:50.546Z,9.60
2019-06-08T21:53:38.170Z,9.20
2019-06-08T21:56:27.506Z,9.50
2019-06-08T21:59:13.773Z,9.07
2019-06-08T22:02:03.538Z,9.10
2019-06-08T22:04:49.671Z,8.70
2019-06-08T22:07:37.763Z,9.00
2019-06-08T22:10:26.239Z,9.10
2019-06-08T22:13:14.428Z,9.10
2019-06-08T22:16:02.063Z,9.40
2019-06-08T22:18:48.979Z,9.10
2019-06-08T22:21:37.557Z,8.90
2019-06-08T22:24:23.937Z,9.47
2019-06-08T22:27:10.308Z,8.70
2019-06-08T22:29:58.553Z,9.07
2019-06-08T22:32:47.220Z,9.00
2019-06-08T22:35:33.831Z,8.77
2019-06-08T22:38:20.181Z,8.90
2019-06-08T22:41:08.107Z,8.70
2019-06-08T22:43:57.926Z,8.90
2019-06-08T22:46:43.409Z,8.90
2019-06-08T22:49:29.894Z,8.87
2019-06-08T22:52:18.523Z,9.20
2019-06-08T22:55:07.849Z,8.67
2019-06-08T22:57:53.956Z,8.87
2019-06-08T23:00:52.127Z,9.23
2019-06-08T23:03:29.889Z,9.00
2019-06-08T23:06:17.637Z,8.70
2019-06-08T23:09:08.732Z,8.73
2019-06-08T23:11:55.714Z,8.50
2019-06-08T23:14:43.488Z,8.67
2019-06-08T23:17:29.845Z,8.87
2019-06-08T23:20:18.459Z,8.80
2019-06-08T23:23:04.426Z,9.03
2019-06-08T23:25:50.897Z,8.90
2019-06-08T23:28:37.776Z,8.80
2019-06-08T23:31:25.774Z,9.20
2019-06-08T23:34:12.386Z,8.57
2019-06-08T23:37:02.663Z,8.90
2019-06-08T23:39:47.149Z,8.80
2019-06-08T23:42:33.494Z,9.03
2019-06-08T23:45:19.921Z,8.67
2019-06-08T23:48:06.736Z,8.83
2019-06-08T23:50:53.371Z,9.03
2019-06-08T23:53:39.694Z,8.93
2019-06-08T23:56:27.757Z,9.23
2019-06-08T23:59:14.341Z,9.00
